Time;durP1;ratioP1;P1;durP2;ratioP2;P2;SDS_P1;SDS_P2;PMS_P1;PMS_P2;Temp;Humidity;BMP_temperature;BMP_pressure;BME280_temperature;BME280_humidity;BME280_pressure;Samples;Min_cycle;Max_cycle;Signal;HPM_P1;HPM_P2
2023/11/01 00:00:19;;;;;;;28.60;10.57;;;9.10;99.90;;;;;;5113238;28;20044;-93
2023/11/01 00:02:46;;;;;;;29.80;10.50;;;9.10;99.90;;;;;;5114586;28;20027;-94
2023/11/01 00:05:12;;;;;;;30.70;11.95;;;9.10;99.90;;;;;;5115467;28;20045;-95
2023/11/01 00:07:37;;;;;;;29.60;11.13;;;9.10;99.90;;;;;;5118343;28;20036;-95
2023/11/01 00:10:04;;;;;;;36.33;11.02;;;9.10;99.90;;;;;;5132784;28;20239;-90
2023/11/01 00:12:29;;;;;;;29.77;11.38;;;9.10;99.90;;;;;;5136483;28;20047;-92
2023/11/01 00:14:55;;;;;;;29.70;10.77;;;9.10;99.90;;;;;;5132496;28;20023;-95
2023/11/01 00:17:21;;;;;;;32.50;12.25;;;9.10;99.90;;;;;;5122901;28;20122;-94
2023/11/01 00:19:46;;;;;;;32.85;11.80;;;9.10;99.90;;;;;;5116751;28;20133;-95
2023/11/01 00:22:12;;;;;;;30.98;10.07;;;9.10;99.90;;;;;;5119071;28;20077;-95
2023/11/01 00:24:38;;;;;;;23.95;9.07;;;9.20;99.90;;;;;;5127661;28;20086;-95
2023/11/01 00:27:04;;;;;;;22.48;8.88;;;9.10;99.90;;;;;;5128568;28;20032;-93
2023/11/01 00:29:29;;;;;;;17.33;7.45;;;9.20;99.90;;;;;;5134073;28;20024;-93
2023/11/01 00:31:55;;;;;;;20.80;8.57;;;9.10;99.90;;;;;;5136757;28;20027;-94
2023/11/01 00:34:21;;;;;;;22.58;8.82;;;9.20;99.90;;;;;;5136503;28;20104;-95
2023/11/01 00:36:46;;;;;;;25.58;8.27;;;9.20;99.90;;;;;;5134619;28;20027;-94
2023/11/01 00:39:12;;;;;;;20.95;8.18;;;9.20;99.90;;;;;;5134619;28;20027;-94
2023/11/01 00:41:37;;;;;;;21.83;8.52;;;9.20;99.90;;;;;;5132922;28;20047;-94
2023/11/01 00:44:03;;;;;;;21.80;8.27;;;9.20;99.90;;;;;;5135839;28;20033;-94
2023/11/01 00:46:29;;;;;;;26.23;9.70;;;9.20;99.90;;;;;;5132551;28;20377;-95
2023/11/01 00:48:54;;;;;;;25.00;8.52;;;9.20;99.90;;;;;;5132651;28;20496;-95
2023/11/01 00:51:20;;;;;;;18.98;8.10;;;9.20;99.90;;;;;;5125258;28;20059;-94
2023/11/01 00:53:46;;;;;;;22.35;9.05;;;9.20;99.90;;;;;;5115491;28;20030;-94
2023/11/01 00:56:11;;;;;;;26.83;10.00;;;9.20;99.90;;;;;;5112720;28;20077;-94
2023/11/01 00:58:37;;;;;;;24.33;9.50;;;9.30;99.90;;;;;;5113923;28;20022;-94
2023/11/01 01:01:03;;;;;;;21.65;8.90;;;9.20;99.90;;;;;;5114119;28;20040;-94
2023/11/01 01:03:29;;;;;;;22.73;9.13;;;9.20;99.90;;;;;;5121272;28;20049;-95
2023/11/01 01:05:54;;;;;;;19.77;8.57;;;9.30;99.90;;;;;;5128994;28;20027;-94
2023/11/01 01:08:20;;;;;;;20.98;9.63;;;9.30;99.90;;;;;;5137830;28;20023;-93
2023/11/01 01:10:46;;;;;;;24.08;9.20;;;9.30;99.90;;;;;;5139691;28;20030;-94
2023/11/01 01:13:11;;;;;;;19.73;8.30;;;9.30;99.90;;;;;;5139848;28;20016;-93
2023/11/01 01:15:37;;;;;;;20.20;8.77;;;9.30;99.90;;;;;;5138646;28;20126;-93
2023/11/01 01:18:03;;;;;;;18.38;8.52;;;9.30;99.90;;;;;;5138896;28;20019;-96
2023/11/01 01:20:28;;;;;;;17.42;9.63;;;9.30;99.90;;;;;;5139141;28;20091;-95
2023/11/01 01:22:54;;;;;;;15.43;8.10;;;9.30;99.90;;;;;;5139174;28;20024;-95
2023/11/01 01:25:19;;;;;;;19.05;8.57;;;9.30;99.90;;;;;;5136047;28;20023;-94
2023/11/01 01:27:45;;;;;;;21.27;9.07;;;9.30;99.90;;;;;;5131763;28;20061;-94
2023/11/01 01:30:11;;;;;;;18.83;8.45;;;9.30;99.90;;;;;;5133321;28;20488;-95
2023/11/01 01:32:37;;;;;;;17.98;8.80;;;9.40;99.90;;;;;;5132244;28;20045;-93
2023/11/01 01:35:03;;;;;;;18.73;8.68;;;9.40;99.90;;;;;;5129560;28;20059;-96
2023/11/01 01:37:29;;;;;;;18.35;9.32;;;9.40;99.90;;;;;;5120945;28;20064;-95
2023/11/01 01:39:54;;;;;;;15.00;7.97;;;9.40;99.90;;;;;;5118698;28;20039;-95
2023/11/01 01:42:20;;;;;;;14.98;8.45;;;9.40;99.90;;;;;;5118854;28;20020;-95
2023/11/01 01:44:45;;;;;;;16.63;9.13;;;9.40;99.90;;;;;;5121648;28;20031;-95
2023/11/01 01:47:12;;;;;;;19.42;8.20;;;9.40;99.90;;;;;;5120389;28;20397;-94
2023/11/01 01:49:37;;;;;;;16.50;7.95;;;9.40;99.90;;;;;;5118112;28;20020;-95
2023/11/01 01:52:03;;;;;;;20.73;8.55;;;9.40;99.90;;;;;;5120096;28;20038;-94
2023/11/01 01:54:30;;;;;;;17.50;8.35;;;9.40;99.90;;;;;;5120957;28;20072;-94
2023/11/01 01:56:56;;;;;;;13.95;7.60;;;9.50;99.90;;;;;;5118884;28;20325;-95
2023/11/01 01:59:21;;;;;;;13.43;7.55;;;9.40;99.90;;;;;;5124267;28;20039;-94
2023/11/01 02:01:49;;;;;;;15.50;8.23;;;9.50;99.90;;;;;;5131135;28;20031;-93
2023/11/01 02:04:16;;;;;;;16.73;7.82;;;9.50;99.90;;;;;;5129161;28;20051;-94
2023/11/01 02:06:43;;;;;;;12.90;7.18;;;9.50;99.90;;;;;;5133951;28;20027;-93
2023/11/01 02:09:15;;;;;;;13.63;6.20;;;9.50;99.90;;;;;;5124836;28;20020;-93
2023/11/01 02:11:44;;;;;;;10.40;4.85;;;9.50;99.90;;;;;;5130425;28;20035;-94
2023/11/01 02:14:11;;;;;;;10.48;6.20;;;9.50;99.90;;;;;;5131773;28;20049;-95
2023/11/01 02:16:37;;;;;;;11.63;5.45;;;9.50;99.90;;;;;;5134323;28;20028;-96
2023/11/01 02:19:07;;;;;;;11.00;5.20;;;9.50;99.90;;;;;;5129733;28;20023;-94
2023/11/01 02:21:32;;;;;;;10.63;4.90;;;9.50;99.90;;;;;;5134623;28;20027;-95
2023/11/01 02:23:58;;;;;;;11.60;5.00;;;9.50;99.90;;;;;;5132450;28;20016;-95
2023/11/01 02:26:25;;;;;;;6.68;4.22;;;9.50;99.90;;;;;;5130416;28;20023;-94
2023/11/01 02:28:51;;;;;;;8.10;4.45;;;9.50;99.90;;;;;;5127661;27;20024;-95
2023/11/01 02:31:16;;;;;;;9.82;4.90;;;9.50;99.90;;;;;;5122697;28;20051;-94
2023/11/01 02:33:42;;;;;;;9.50;3.80;;;9.50;99.90;;;;;;5122427;28;20433;-95
2023/11/01 02:36:08;;;;;;;7.88;4.90;;;9.50;99.90;;;;;;5121614;28;20019;-94
2023/11/01 02:38:33;;;;;;;8.02;3.92;;;9.50;99.90;;;;;;5130058;28;20036;-93
2023/11/01 02:40:59;;;;;;;6.43;4.22;;;9.50;99.90;;;;;;5127305;28;20048;-94
2023/11/01 02:43:25;;;;;;;7.97;4.43;;;9.50;99.90;;;;;;5127161;28;20210;-94
2023/11/01 02:45:51;;;;;;;6.68;3.95;;;9.60;99.90;;;;;;5120491;28;20059;-94
2023/11/01 02:48:16;;;;;;;6.40;3.92;;;9.50;99.90;;;;;;5118596;28;20539;-94
2023/11/01 02:50:42;;;;;;;12.38;3.75;;;9.60;99.90;;;;;;5118763;27;20039;-95
2023/11/01 02:53:08;;;;;;;5.65;3.67;;;9.60;99.90;;;;;;5116560;28;20106;-93
2023/11/01 02:55:34;;;;;;;5.90;3.30;;;9.60;99.90;;;;;;5116070;28;20062;-93
2023/11/01 02:58:02;;;;;;;5.32;3.35;;;9.60;99.90;;;;;;5115411;28;20069;-93
2023/11/01 03:00:28;;;;;;;4.22;3.28;;;9.60;99.90;;;;;;5116198;28;20069;-93
2023/11/01 03:02:54;;;;;;;7.07;3.10;;;9.60;99.90;;;;;;5116107;28;20032;-93
2023/11/01 03:05:19;;;;;;;4.57;2.85;;;9.60;99.90;;;;;;5116934;28;20066;-93
2023/11/01 03:07:45;;;;;;;4.38;3.20;;;9.60;99.90;;;;;;5117711;28;20062;-94
2023/11/01 03:10:11;;;;;;;3.80;2.72;;;9.60;99.90;;;;;;5116196;28;20024;-95
2023/11/01 03:12:38;;;;;;;7.30;3.10;;;9.60;99.90;;;;;;5115816;28;20095;-93
2023/11/01 03:15:07;;;;;;;3.60;2.60;;;9.60;99.90;;;;;;5118364;28;20038;-94
2023/11/01 03:17:36;;;;;;;7.63;3.80;;;9.60;99.90;;;;;;5126163;28;20023;-94
2023/11/01 03:20:03;;;;;;;4.72;2.30;;;9.60;99.90;;;;;;5128175;28;20031;-93
2023/11/01 03:22:28;;;;;;;4.53;2.85;;;9.60;99.90;;;;;;5122864;28;20095;-94
2023/11/01 03:24:54;;;;;;;5.45;3.22;;;9.60;99.90;;;;;;5115588;28;20078;-94
2023/11/01 03:27:20;;;;;;;3.60;2.70;;;9.60;99.90;;;;;;5114919;28;20062;-94
2023/11/01 03:29:46;;;;;;;3.75;2.75;;;9.60;99.90;;;;;;5116134;28;20175;-94
2023/11/01 03:32:11;;;;;;;4.78;2.88;;;9.60;99.90;;;;;;5115653;28;20110;-94
2023/11/01 03:34:38;;;;;;;3.70;2.92;;;9.60;99.90;;;;;;5113889;28;20027;-92
2023/11/01 03:37:04;;;;;;;4.53;2.78;;;9.60;99.90;;;;;;5114112;28;20080;-93
2023/11/01 03:39:29;;;;;;;3.28;2.60;;;9.60;99.90;;;;;;5114660;28;20035;-93
2023/11/01 03:41:55;;;;;;;4.15;2.92;;;9.60;99.90;;;;;;5114524;28;20094;-94
2023/11/01 03:44:20;;;;;;;4.30;3.30;;;9.60;99.90;;;;;;5113911;28;20353;-95
2023/11/01 03:46:46;;;;;;;4.35;2.50;;;9.60;99.90;;;;;;5115048;28;20019;-94
2023/11/01 03:49:12;;;;;;;3.17;2.85;;;9.60;99.90;;;;;;5122635;28;20020;-94
2023/11/01 03:51:37;;;;;;;3.60;2.95;;;9.60;99.90;;;;;;5118763;28;20020;-95
2023/11/01 03:54:03;;;;;;;4.30;2.63;;;9.60;99.90;;;;;;5120617;28;20076;-96
2023/11/01 03:56:29;;;;;;;3.83;3.22;;;9.60;99.90;;;;;;5121603;28;20024;-95
2023/11/01 03:58:55;;;;;;;6.20;3.38;;;9.60;99.90;;;;;;5123373;28;20031;-95
2023/11/01 04:01:21;;;;;;;3.90;2.85;;;9.60;99.90;;;;;;5124730;28;20040;-95
2023/11/01 04:03:47;;;;;;;3.17;2.72;;;9.60;99.90;;;;;;5119386;28;20076;-95
2023/11/01 04:06:13;;;;;;;2.83;2.50;;;9.60;99.90;;;;;;5118440;28;20129;-95
2023/11/01 04:08:38;;;;;;;3.20;2.30;;;9.60;99.90;;;;;;5118420;28;20083;-95
2023/11/01 04:11:04;;;;;;;4.82;3.15;;;9.60;99.90;;;;;;5115786;28;20031;-96
2023/11/01 04:13:31;;;;;;;3.50;2.05;;;9.60;99.90;;;;;;5116917;28;20054;-95
2023/11/01 04:16:00;;;;;;;3.85;2.70;;;9.60;99.90;;;;;;5115615;28;20506;-96
2023/11/01 04:18:26;;;;;;;2.38;2.17;;;9.70;99.90;;;;;;5114874;28;20058;-94
2023/11/01 04:20:52;;;;;;;5.72;2.35;;;9.70;99.90;;;;;;5115618;28;20059;-96
2023/11/01 04:23:18;;;;;;;3.10;2.35;;;9.70;99.90;;;;;;5119736;28;20079;-93
2023/11/01 04:25:44;;;;;;;4.28;2.20;;;9.70;99.90;;;;;;5118823;28;20028;-96
2023/11/01 04:28:10;;;;;;;3.55;2.30;;;9.70;99.90;;;;;;5124167;28;20035;-94
2023/11/01 04:30:39;;;;;;;2.55;2.10;;;9.70;99.90;;;;;;5125015;28;20075;-95
2023/11/01 04:33:08;;;;;;;2.60;2.40;;;9.70;99.90;;;;;;5122335;28;20024;-94
2023/11/01 04:35:36;;;;;;;2.60;2.20;;;9.70;99.90;;;;;;5118979;28;20053;-93
2023/11/01 04:38:02;;;;;;;2.15;1.95;;;9.80;99.90;;;;;;5117197;28;20469;-95
2023/11/01 04:40:28;;;;;;;4.43;1.73;;;9.80;99.90;;;;;;5114560;28;20087;-95
2023/11/01 04:42:53;;;;;;;3.10;2.22;;;9.80;99.90;;;;;;5113399;28;20118;-94
2023/11/01 04:45:19;;;;;;;2.30;1.77;;;9.80;99.90;;;;;;5115080;28;20050;-94
2023/11/01 04:47:46;;;;;;;3.50;2.20;;;9.80;99.90;;;;;;5113951;28;20024;-95
2023/11/01 04:50:13;;;;;;;4.57;2.13;;;9.80;99.90;;;;;;5114050;28;20118;-94
2023/11/01 04:52:40;;;;;;;4.25;2.03;;;9.80;99.90;;;;;;5113585;28;20377;-93
2023/11/01 04:55:08;;;;;;;7.90;3.08;;;9.90;99.90;;;;;;5115762;28;20473;-94
2023/11/01 04:57:33;;;;;;;3.97;2.20;;;9.90;99.90;;;;;;5117308;28;20039;-94
2023/11/01 05:00:00;;;;;;;6.18;2.60;;;9.90;99.90;;;;;;5114745;28;20080;-94
2023/11/01 05:02:26;;;;;;;4.78;3.10;;;9.90;99.90;;;;;;5113827;28;20427;-94
2023/11/01 05:04:52;;;;;;;11.35;3.28;;;10.00;99.90;;;;;;5114195;28;20389;-94
2023/11/01 05:07:19;;;;;;;8.05;3.00;;;10.10;99.90;;;;;;5112788;28;20036;-92
2023/11/01 05:09:44;;;;;;;8.60;3.70;;;10.10;99.90;;;;;;5112731;28;20020;-92
2023/11/01 05:12:10;;;;;;;6.07;3.83;;;10.20;99.90;;;;;;5114046;28;20039;-94
2023/11/01 05:14:35;;;;;;;7.28;3.40;;;10.20;99.90;;;;;;5113846;28;20030;-93
2023/11/01 05:17:01;;;;;;;6.22;3.40;;;10.20;99.90;;;;;;5112865;28;20024;-94
2023/11/01 05:19:27;;;;;;;13.15;4.53;;;10.20;99.90;;;;;;5113722;28;20085;-94
2023/11/01 05:21:53;;;;;;;17.25;4.35;;;10.30;99.90;;;;;;5112667;28;20067;-94
2023/11/01 05:24:18;;;;;;;14.30;4.18;;;10.30;99.90;;;;;;5113609;28;20031;-94
2023/11/01 05:26:44;;;;;;;12.60;4.88;;;10.30;99.90;;;;;;5113992;28;20388;-94
2023/11/01 05:29:10;;;;;;;19.48;5.40;;;10.40;99.90;;;;;;5114558;28;20028;-94
2023/11/01 05:31:36;;;;;;;11.18;4.75;;;10.40;99.90;;;;;;5115084;28;20376;-94
2023/11/01 05:34:03;;;;;;;13.93;4.65;;;10.40;99.90;;;;;;5117040;28;20024;-94
2023/11/01 05:36:29;;;;;;;13.40;5.63;;;10.50;99.90;;;;;;5117299;28;20024;-93
2023/11/01 05:38:55;;;;;;;14.07;4.93;;;10.50;99.90;;;;;;5119507;28;20058;-94
2023/11/01 05:41:22;;;;;;;16.98;5.30;;;10.50;99.90;;;;;;5113576;28;20040;-93
2023/11/01 05:43:47;;;;;;;16.17;5.40;;;10.50;99.90;;;;;;5113715;28;20016;-93
2023/11/01 05:46:14;;;;;;;17.85;5.68;;;10.60;99.90;;;;;;5114194;28;20406;-94
2023/11/01 05:48:40;;;;;;;12.15;5.25;;;10.60;99.90;;;;;;5116004;28;20020;-92
2023/11/01 05:51:06;;;;;;;24.77;5.05;;;10.60;99.90;;;;;;5116155;28;20429;-94
2023/11/01 05:53:32;;;;;;;16.42;4.63;;;10.60;99.90;;;;;;5117468;28;20396;-93
2023/11/01 05:55:59;;;;;;;12.52;4.55;;;10.70;99.90;;;;;;5116363;28;20028;-94
2023/11/01 05:58:24;;;;;;;21.52;4.63;;;10.70;99.90;;;;;;5116025;28;20036;-95
2023/11/01 06:00:50;;;;;;;17.77;4.60;;;10.80;99.90;;;;;;5117169;28;20480;-93
2023/11/01 06:03:16;;;;;;;19.23;4.68;;;10.80;99.90;;;;;;5116001;28;20054;-94
2023/11/01 06:05:42;;;;;;;16.08;4.15;;;10.80;99.90;;;;;;5116901;27;20031;-93
2023/11/01 06:08:11;;;;;;;9.68;4.30;;;10.80;99.90;;;;;;5117053;28;20086;-94
2023/11/01 06:10:37;;;;;;;17.83;4.43;;;10.80;99.90;;;;;;5117471;28;20024;-94
2023/11/01 06:13:05;;;;;;;14.57;4.30;;;10.90;99.90;;;;;;5115810;28;20030;-94
2023/11/01 06:15:31;;;;;;;18.02;4.55;;;10.90;99.90;;;;;;5115726;28;20115;-93
2023/11/01 06:17:56;;;;;;;20.63;4.13;;;10.90;99.90;;;;;;5116902;28;20103;-95
2023/11/01 06:20:22;;;;;;;11.35;3.25;;;11.00;99.90;;;;;;5116778;28;20084;-94
2023/11/01 06:22:48;;;;;;;12.07;3.55;;;11.00;99.90;;;;;;5115415;28;20035;-94
2023/11/01 06:25:16;;;;;;;11.73;3.58;;;11.00;99.90;;;;;;5116964;28;20039;-92
2023/11/01 06:27:42;;;;;;;10.57;3.67;;;11.00;99.90;;;;;;5116044;28;20545;-94
2023/11/01 06:30:08;;;;;;;9.07;3.33;;;11.00;99.90;;;;;;5117322;28;20024;-94
2023/11/01 06:32:37;;;;;;;12.82;3.38;;;11.10;99.90;;;;;;5116803;28;20035;-94
2023/11/01 06:35:04;;;;;;;10.63;3.38;;;11.10;99.90;;;;;;5118072;28;20020;-94
2023/11/01 06:37:30;;;;;;;10.77;3.55;;;11.10;99.90;;;;;;5119032;28;20094;-94
2023/11/01 06:39:57;;;;;;;14.40;3.45;;;11.10;99.90;;;;;;5119097;27;20063;-94
2023/11/01 06:42:22;;;;;;;12.60;3.08;;;11.10;99.90;;;;;;5119873;28;20051;-94
2023/11/01 06:44:48;;;;;;;9.93;3.72;;;11.10;99.90;;;;;;5120895;28;20121;-95
2023/11/01 06:47:14;;;;;;;11.70;2.70;;;11.20;99.90;;;;;;5119946;28;20059;-93
2023/11/01 06:49:39;;;;;;;8.10;3.15;;;11.20;99.90;;;;;;5118822;28;20032;-94
2023/11/01 06:52:08;;;;;;;10.45;3.20;;;11.20;99.90;;;;;;5118730;28;20071;-94
2023/11/01 06:54:37;;;;;;;9.77;3.08;;;11.20;99.90;;;;;;5117599;28;20115;-93
2023/11/01 06:57:03;;;;;;;10.05;2.00;;;11.20;99.90;;;;;;5117845;28;20030;-94
2023/11/01 06:59:28;;;;;;;9.15;2.03;;;11.30;99.90;;;;;;5117677;28;20031;-92
2023/11/01 07:01:54;;;;;;;11.43;2.20;;;11.30;99.90;;;;;;5126619;28;20476;-93
2023/11/01 07:04:20;;;;;;;8.05;2.38;;;11.30;99.90;;;;;;5124835;28;20030;-93
2023/11/01 07:06:45;;;;;;;7.40;2.88;;;11.30;99.90;;;;;;5120520;28;20052;-92
2023/11/01 07:09:11;;;;;;;13.73;2.47;;;11.30;99.90;;;;;;5119292;28;20027;-94
2023/11/01 07:11:37;;;;;;;8.35;1.90;;;11.30;99.90;;;;;;5119915;28;20023;-94
2023/11/01 07:14:06;;;;;;;10.88;2.33;;;11.40;99.90;;;;;;5116940;28;20073;-95
2023/11/01 07:16:32;;;;;;;7.43;2.15;;;11.40;99.90;;;;;;5119672;28;20028;-94
2023/11/01 07:18:58;;;;;;;12.93;2.17;;;11.40;99.90;;;;;;5124939;28;20035;-94
2023/11/01 07:21:25;;;;;;;10.25;2.60;;;11.50;99.90;;;;;;5124426;28;20036;-94
2023/11/01 07:23:50;;;;;;;8.90;1.70;;;11.50;99.90;;;;;;5121126;28;20027;-94
2023/11/01 07:26:16;;;;;;;10.75;2.08;;;11.50;99.90;;;;;;5123185;28;20121;-94
2023/11/01 07:28:44;;;;;;;9.20;2.17;;;11.50;99.90;;;;;;5125252;28;20023;-94
2023/11/01 07:31:09;;;;;;;9.57;1.33;;;11.50;99.90;;;;;;5123425;28;20023;-94
2023/11/01 07:33:37;;;;;;;6.40;0.80;;;11.50;99.90;;;;;;5119500;28;20076;-94
2023/11/01 07:36:03;;;;;;;9.38;1.38;;;11.50;99.90;;;;;;5115326;28;20557;-93
2023/11/01 07:38:29;;;;;;;4.57;1.23;;;11.60;99.90;;;;;;5115331;28;20023;-93
2023/11/01 07:40:55;;;;;;;2.60;0.80;;;11.60;99.90;;;;;;5113841;28;20112;-93
2023/11/01 07:43:22;;;;;;;0.55;0.50;;;11.60;99.90;;;;;;5114568;28;20026;-92
2023/11/01 07:45:48;;;;;;;2.70;0.40;;;11.50;99.90;;;;;;5116233;28;20045;-92
2023/11/01 07:48:14;;;;;;;3.20;0.50;;;11.50;99.90;;;;;;5114207;28;20391;-95
2023/11/01 07:50:40;;;;;;;2.20;0.60;;;11.50;99.90;;;;;;5114035;28;20015;-94
2023/11/01 07:53:06;;;;;;;1.85;0.70;;;11.50;99.90;;;;;;5114356;28;20027;-95
2023/11/01 07:55:31;;;;;;;2.00;0.68;;;11.40;99.90;;;;;;5114222;28;20028;-93
2023/11/01 07:57:57;;;;;;;5.65;0.70;;;11.40;99.90;;;;;;5115235;28;20028;-94
2023/11/01 08:00:23;;;;;;;2.08;0.70;;;11.40;99.90;;;;;;5114247;28;20066;-93
2023/11/01 08:02:49;;;;;;;1.50;0.73;;;11.40;99.90;;;;;;5114940;28;20184;-94
2023/11/01 08:05:16;;;;;;;3.55;1.85;;;11.40;99.90;;;;;;5117809;28;20049;-95
2023/11/01 08:07:41;;;;;;;1.55;0.70;;;11.40;99.90;;;;;;5120679;27;20058;-94
2023/11/01 08:10:07;;;;;;;1.80;0.65;;;11.40;99.90;;;;;;5119965;28;20055;-94
2023/11/01 08:12:33;;;;;;;2.85;0.60;;;11.40;99.90;;;;;;5119647;28;20016;-95
2023/11/01 08:14:59;;;;;;;2.10;0.50;;;11.40;99.90;;;;;;5116040;28;20034;-95
2023/11/01 08:17:24;;;;;;;3.85;1.10;;;11.40;99.90;;;;;;5114960;28;20027;-95
2023/11/01 08:19:50;;;;;;;1.70;0.85;;;11.40;99.90;;;;;;5113489;28;20114;-94
2023/11/01 08:22:16;;;;;;;3.40;0.63;;;11.40;99.90;;;;;;5113986;28;20088;-95
2023/11/01 08:24:41;;;;;;;4.15;0.60;;;11.50;99.90;;;;;;5114375;28;20049;-93
2023/11/01 08:27:07;;;;;;;3.50;1.27;;;11.40;99.90;;;;;;5116560;28;20361;-94
2023/11/01 08:29:35;;;;;;;3.25;0.90;;;11.50;99.90;;;;;;5116145;28;20123;-93
2023/11/01 08:32:05;;;;;;;1.67;0.80;;;11.50;99.90;;;;;;5113573;28;20497;-94
2023/11/01 08:34:31;;;;;;;4.10;0.93;;;11.50;99.90;;;;;;5115209;28;20035;-94
2023/11/01 08:36:57;;;;;;;2.88;1.67;;;11.60;99.90;;;;;;5113350;28;20031;-94
2023/11/01 08:39:22;;;;;;;2.55;0.73;;;11.60;99.90;;;;;;5113426;28;20034;-92
2023/11/01 08:41:48;;;;;;;5.05;0.73;;;11.60;99.90;;;;;;5114446;28;20036;-93
2023/11/01 08:44:14;;;;;;;2.80;0.65;;;11.70;99.90;;;;;;5114423;28;20034;-94
2023/11/01 08:46:39;;;;;;;3.33;0.80;;;11.70;99.90;;;;;;5115180;28;20043;-93
2023/11/01 08:49:05;;;;;;;2.15;0.77;;;11.70;99.90;;;;;;5116159;28;20110;-93
2023/11/01 08:51:30;;;;;;;3.85;0.60;;;11.70;99.90;;;;;;5116476;28;20500;-94
2023/11/01 08:53:59;;;;;;;3.72;0.45;;;11.60;99.90;;;;;;5114084;28;20115;-94
2023/11/01 08:56:25;;;;;;;2.22;0.45;;;11.60;99.90;;;;;;5115806;28;20123;-93
2023/11/01 08:58:51;;;;;;;2.60;0.60;;;11.60;99.90;;;;;;5113970;28;20212;-93
2023/11/01 09:01:17;;;;;;;2.78;0.80;;;11.60;99.90;;;;;;5113622;28;20035;-94
2023/11/01 09:03:43;;;;;;;3.97;0.50;;;11.60;99.90;;;;;;5114556;28;20062;-93
2023/11/01 09:06:09;;;;;;;4.25;1.02;;;11.60;99.90;;;;;;5114739;28;20023;-95
2023/11/01 09:08:34;;;;;;;3.38;0.70;;;11.60;99.90;;;;;;5114845;28;20057;-95
2023/11/01 09:11:00;;;;;;;3.70;0.75;;;11.60;99.90;;;;;;5118162;28;20019;-94
2023/11/01 09:13:25;;;;;;;4.78;1.48;;;11.60;99.90;;;;;;5120477;28;20047;-94
2023/11/01 09:15:51;;;;;;;4.82;1.48;;;11.60;99.90;;;;;;5118925;28;20031;-93
2023/11/01 09:18:17;;;;;;;5.47;0.77;;;11.70;99.90;;;;;;5114939;28;20059;-95
2023/11/01 09:20:43;;;;;;;3.78;0.70;;;11.70;99.90;;;;;;5115337;28;20032;-94
2023/11/01 09:23:08;;;;;;;6.65;1.52;;;11.70;99.90;;;;;;5116796;28;20019;-94
2023/11/01 09:25:34;;;;;;;2.72;0.60;;;11.80;99.90;;;;;;5127358;28;20027;-95
2023/11/01 09:28:00;;;;;;;2.47;0.70;;;11.80;99.90;;;;;;5127482;28;20020;-93
2023/11/01 09:30:25;;;;;;;3.67;0.55;;;11.90;99.90;;;;;;5128783;28;20123;-94
2023/11/01 09:32:51;;;;;;;5.15;0.63;;;11.90;99.90;;;;;;5138505;28;20039;-93
2023/11/01 09:35:16;;;;;;;5.68;2.15;;;11.90;99.90;;;;;;5139346;28;20024;-93
2023/11/01 09:37:42;;;;;;;2.22;0.93;;;12.00;99.90;;;;;;5138847;28;20038;-92
2023/11/01 09:40:12;;;;;;;3.17;0.60;;;12.10;99.90;;;;;;5121219;28;20054;-94
2023/11/01 09:42:38;;;;;;;3.83;0.70;;;12.10;99.90;;;;;;5117253;28;20031;-94
2023/11/01 09:45:10;;;;;;;1.42;0.55;;;12.20;99.90;;;;;;5117785;28;20366;-94
2023/11/01 09:47:37;;;;;;;3.42;1.08;;;12.30;99.90;;;;;;5117115;28;20051;-96
2023/11/01 09:50:05;;;;;;;3.75;0.95;;;12.30;99.90;;;;;;5117537;28;20537;-94
2023/11/01 09:52:31;;;;;;;6.60;0.90;;;12.40;99.90;;;;;;5118016;28;20039;-95
2023/11/01 09:54:57;;;;;;;5.25;0.75;;;12.30;99.90;;;;;;5117759;28;20024;-95
2023/11/01 09:57:25;;;;;;;5.18;1.02;;;12.30;99.90;;;;;;5116528;28;20027;-95
2023/11/01 09:59:51;;;;;;;7.05;1.17;;;12.20;99.90;;;;;;5116470;28;20022;-94
2023/11/01 10:02:17;;;;;;;5.80;0.98;;;12.20;99.90;;;;;;5116934;28;20035;-94
2023/11/01 10:04:44;;;;;;;4.38;0.75;;;12.00;99.90;;;;;;5118189;28;20051;-95
2023/11/01 10:07:10;;;;;;;4.68;0.90;;;12.00;99.90;;;;;;5118220;28;20464;-95
2023/11/01 10:09:38;;;;;;;3.47;0.80;;;12.00;99.90;;;;;;5120457;28;20057;-94
2023/11/01 10:12:08;;;;;;;4.13;0.93;;;11.90;99.90;;;;;;5121407;28;20436;-94
2023/11/01 10:14:35;;;;;;;9.13;1.48;;;11.90;99.90;;;;;;5118635;28;20232;-95
2023/11/01 10:17:02;;;;;;;4.63;0.95;;;12.00;99.90;;;;;;5122688;28;20028;-95
2023/11/01 10:19:29;;;;;;;10.18;1.63;;;12.10;99.90;;;;;;5122998;28;20019;-95
2023/11/01 10:21:59;;;;;;;9.10;1.52;;;12.10;99.90;;;;;;5120310;28;20073;-95
2023/11/01 10:24:25;;;;;;;6.30;1.65;;;12.20;99.90;;;;;;5130384;28;20031;-94
2023/11/01 10:26:55;;;;;;;5.93;1.50;;;12.30;99.90;;;;;;5130557;28;20096;-94
2023/11/01 10:29:26;;;;;;;11.25;1.27;;;12.30;99.90;;;;;;5124052;28;20038;-95
2023/11/01 10:31:57;;;;;;;12.55;1.90;;;12.30;99.90;;;;;;5116734;28;20031;-95
2023/11/01 10:34:29;;;;;;;10.27;1.50;;;12.40;99.90;;;;;;5116060;28;20130;-96
2023/11/01 10:36:57;;;;;;;13.20;1.70;;;12.40;99.90;;;;;;5118207;28;20031;-94
2023/11/01 10:39:24;;;;;;;5.85;1.48;;;12.40;99.90;;;;;;5119779;28;20027;-93
2023/11/01 10:41:53;;;;;;;8.52;2.33;;;12.30;99.90;;;;;;5119069;28;20055;-95
2023/11/01 10:44:21;;;;;;;10.98;1.98;;;12.30;99.90;;;;;;5116279;28;20028;-95
2023/11/01 10:46:48;;;;;;;11.80;1.40;;;12.30;99.90;;;;;;5118644;28;20024;-95
2023/11/01 10:49:17;;;;;;;13.70;1.95;;;12.30;99.90;;;;;;5120802;28;20035;-96
2023/11/01 10:51:43;;;;;;;4.47;1.23;;;12.30;99.90;;;;;;5122138;28;20098;-95
2023/11/01 10:54:10;;;;;;;11.25;1.52;;;12.50;99.90;;;;;;5117533;28;20015;-95
2023/11/01 10:56:37;;;;;;;8.82;1.55;;;12.60;99.90;;;;;;5116202;28;20118;-96
2023/11/01 10:59:31;;;;;;;5.97;1.42;;;12.70;99.90;;;;;;5115745;28;20042;-95
2023/11/01 11:02:06;;;;;;;8.30;1.30;;;12.70;99.90;;;;;;5117245;28;20051;-95
2023/11/01 11:04:57;;;;;;;10.60;1.60;;;12.80;99.90;;;;;;5116110;28;20122;-95
2023/11/01 11:07:49;;;;;;;15.30;1.65;;;12.70;99.90;;;;;;5117794;28;20081;-94
2023/11/01 11:10:21;;;;;;;9.77;2.03;;;12.70;99.90;;;;;;5116669;28;20033;-96
2023/11/01 11:13:08;;;;;;;13.80;2.10;;;12.60;99.90;;;;;;5115450;28;20534;-95
2023/11/01 11:15:56;;;;;;;12.30;2.10;;;12.40;99.90;;;;;;5115337;28;20067;-95
2023/11/01 11:18:24;;;;;;;14.10;1.77;;;12.30;99.90;;;;;;5115332;28;20024;-95
2023/11/01 11:20:58;;;;;;;9.43;1.33;;;12.30;99.90;;;;;;5114834;28;20523;-95
2023/11/01 11:23:31;;;;;;;13.10;2.25;;;12.10;99.90;;;;;;5115149;28;20148;-93
2023/11/01 11:26:02;;;;;;;11.40;1.73;;;12.10;99.90;;;;;;5115039;28;20024;-96
2023/11/01 11:28:47;;;;;;;8.20;1.70;;;12.10;99.90;;;;;;5115765;28;20024;-94
2023/11/01 11:31:20;;;;;;;14.00;1.85;;;12.10;99.90;;;;;;5116066;28;20036;-95
2023/11/01 11:33:46;;;;;;;10.13;1.40;;;12.00;99.90;;;;;;5116462;28;20039;-94
2023/11/01 11:36:20;;;;;;;13.75;1.80;;;12.00;99.90;;;;;;5119157;28;20020;-94
2023/11/01 11:38:49;;;;;;;14.98;2.35;;;12.00;99.90;;;;;;5122983;28;20058;-94
2023/11/01 11:41:16;;;;;;;18.75;2.88;;;12.00;99.90;;;;;;5120892;28;20051;-95
2023/11/01 11:44:06;;;;;;;10.55;1.73;;;12.00;99.90;;;;;;5121370;28;20023;-95
2023/11/01 11:46:35;;;;;;;5.63;0.95;;;12.10;99.90;;;;;;5116148;28;20027;-94
2023/11/01 11:49:02;;;;;;;14.68;2.25;;;12.10;99.90;;;;;;5117864;28;20043;-94
2023/11/01 11:51:29;;;;;;;14.38;1.70;;;12.10;99.90;;;;;;5115878;28;20023;-94
2023/11/01 11:53:56;;;;;;;10.10;1.85;;;12.10;99.90;;;;;;5118362;28;20520;-94
2023/11/01 11:56:22;;;;;;;11.10;1.70;;;12.20;99.90;;;;;;5116379;28;20024;-94
2023/11/01 11:58:48;;;;;;;18.58;2.30;;;12.30;99.90;;;;;;5116274;28;20123;-93
2023/11/01 12:01:26;;;;;;;11.27;1.58;;;12.50;99.90;;;;;;5116567;28;20558;-94
2023/11/01 12:03:55;;;;;;;14.13;1.40;;;12.50;99.90;;;;;;5126478;28;20019;-94
2023/11/01 12:06:24;;;;;;;11.50;1.77;;;12.50;99.90;;;;;;5123478;28;20023;-95
2023/11/01 12:08:50;;;;;;;16.20;1.58;;;12.40;99.90;;;;;;5119832;28;20049;-95
2023/11/01 12:11:16;;;;;;;8.82;1.10;;;12.40;99.90;;;;;;5114755;28;20023;-94
2023/11/01 12:13:49;;;;;;;6.88;1.42;;;12.30;99.90;;;;;;5114604;28;20170;-95
2023/11/01 12:16:29;;;;;;;11.85;1.80;;;12.30;99.90;;;;;;5114053;28;20480;-95
2023/11/01 12:19:20;;;;;;;13.20;1.85;;;12.30;99.90;;;;;;5114000;28;20024;-94
2023/11/01 12:21:50;;;;;;;10.63;1.70;;;12.20;99.90;;;;;;5113816;28;20069;-94
2023/11/01 12:24:18;;;;;;;5.50;1.00;;;12.20;99.90;;;;;;5113833;28;20043;-94
2023/11/01 12:27:03;;;;;;;10.90;2.08;;;12.20;99.90;;;;;;5113956;28;20365;-94
2023/11/01 12:29:33;;;;;;;14.50;1.40;;;12.20;99.90;;;;;;5113985;28;20473;-94
2023/11/01 12:32:04;;;;;;;10.80;1.35;;;12.20;99.90;;;;;;5114529;28;20032;-94
2023/11/01 12:34:35;;;;;;;8.73;1.63;;;12.20;99.90;;;;;;5113990;28;20032;-94
2023/11/01 12:37:04;;;;;;;12.85;1.77;;;12.10;99.90;;;;;;5114134;28;20095;-93
2023/11/01 12:39:33;;;;;;;13.80;1.27;;;12.10;99.90;;;;;;5114705;28;20031;-94
2023/11/01 12:42:22;;;;;;;7.97;1.27;;;12.10;99.90;;;;;;5116505;28;20127;-94
2023/11/01 12:44:49;;;;;;;7.40;1.30;;;12.00;99.90;;;;;;5124577;28;20027;-94